Union Hill, Louisiana
Current Conditions -  °F | °C
As of 7:15 AM on Monday 22 Dec 2014 (Local Time) from KIER Reporting Station
Haze Haze  
Wind Chill: 52°   Ceiling: 500
Heat Index: 52°   Visibility: 4mi
Dew Point: 51°   Wind: 6mph
Humidity: 98%   Direction: 150°SSE
Pressure: 29.79"   Gusts: NA
Location:  31.6668°N, 92.8023°W
Report Text: KIER 221315Z AUTO 15005KT 4SM BR OVC005 11/11 A2979 RMK AO2 T01100107
Loading
Personal Weather Stations






























Interactive Weather Map New forecast layout! Learn more

10-Day Weather Forecast

Advertisements
Track Severe Weather on mobile